Flight Track Log - Related Links

Times and Time Zones

All times are in EDT time to prevent confusion due to time zone crossing. See the ASQ5025 flight status page for this flight to view local times or setup timezone preferences in your user account.

Time Position Orientation Groundspeed Altitude Reporting Facility
EDT Latitude Longitude Course Direction KTS MPH feet Rate Location/Type
Fri 03:24:44 PM 44.4814 -73.2372 196° South 154 177 4,400  Level Boston Center
Fri 03:25:44 PM 44.4147 -73.2539 190° South 175 201 7,300 3,150 Climbing Boston Center
Fri 03:26:44 PM 44.3417 -73.2761 192° South 246 283 10,700 2,800 Climbing Boston Center
Fri 03:27:44 PM 44.2581 -73.3039 193° South 297 342 12,900 2,400 Climbing Boston Center
Fri 03:28:44 PM 44.1472 -73.3428 194° South 355 409 15,500 2,500 Climbing Boston Center
Fri 03:29:00 PM 44.0884 -73.2913 196° South  Level FlightAware Approximate
Fri 03:29:44 PM 44.0428 -73.3786 194° South 384 442 17,900  Level Boston Center
Fri 03:30:00 PM 44.0130 -73.3215 196° South  Level FlightAware Approximate
Fri 03:30:44 PM 43.9364 -73.4144 194° South 401 461 19,900  Level Boston Center
Fri 03:31:44 PM 43.8194 -73.4444 190° South 406 467 20,000 50 Climbing Boston Center
Fri 03:32:44 PM 43.7067 -73.4539 183° South 419 482 20,000  Level Boston Center
Fri 03:33:44 PM 43.5942 -73.4636 184° South 419 482 20,000  Level Boston Center
Fri 03:34:44 PM 43.4794 -73.4731 183° South 419 482 20,000  Level Boston Center
Fri 03:35:44 PM 43.3647 -73.4825 183° South 419 482 20,000  Level Boston Center
Fri 03:36:44 PM 43.2522 -73.4892 182° South 419 482 20,000  Level Boston Center
Fri 03:37:44 PM 43.1417 -73.4986 184° South 413 475 20,000  Level Boston Center
Fri 03:38:44 PM 43.0228 -73.5108 184° South 413 475 20,000  Level Boston Center
Fri 03:39:44 PM 42.9100 -73.5200 183° South 413 475 20,000  Level Boston Center
Fri 03:40:44 PM 42.8017 -73.5267 183° South 406 467 20,000  Level Boston Center
Fri 03:41:44 PM 42.6889 -73.5361 184° South 406 467 20,000  Level Boston Center
Fri 03:42:44 PM 42.5742 -73.5453 183° South 406 467 20,000  Level Boston Center
Fri 03:43:44 PM 42.4617 -73.5544 183° South 406 467 20,000 -50 Level Boston Center
Fri 03:44:44 PM 42.3719 -73.5614 183° South 406 467 19,900 -650 Descending Boston Center
Fri 03:45:44 PM 42.2406 -73.5731 184° South 401 461 18,700 -950 Descending Boston Center
Fri 03:46:44 PM 42.1447 -73.5769 182° South 379 436 18,000 -350 Descending Boston Center
Fri 03:47:44 PM 42.0508 -73.5808 182° South 367 422 18,000  Level Boston Center
Fri 03:48:44 PM 41.9236 -73.5897 183° South 401 461 18,000  Level Boston Center
Fri 03:49:44 PM 41.8317 -73.5992 184° South 394 453 18,000  Level Boston Center
Fri 03:50:44 PM 41.7436 -73.6614 208° Southwest 322 371 18,000 -400 Level Boston Center
Fri 03:51:44 PM 41.6803 -73.7242 217° Southwest 327 376 17,200 -1,534 Descending Boston Center
Fri 03:52:57 PM 41.5667 -73.7500 190° South 322 371 14,600 -2,201 Descending New York TRACON
Fri 03:54:03 PM 41.4667 -73.7667 187° South 308 354 12,100 -2,190 Descending New York TRACON
Fri 03:55:03 PM 41.3833 -73.7833 189° South 293 337 10,000 -1,900 Descending New York TRACON
Fri 03:56:03 PM 41.3167 -73.7667 169° South 277 319 8,300 -950 Descending New York TRACON
Fri 03:57:03 PM 41.2500 -73.7167 151° Southeast 264 304 8,100 -400 Descending New York TRACON
Fri 03:59:03 PM 41.1333 -73.6500 157° South 248 285 7,100 -667 Descending New York TRACON
Fri 04:00:03 PM 41.0667 -73.6500 180° South 237 273 6,100 -1,000 Descending New York TRACON
Fri 04:01:03 PM 41.0167 -73.6833 207° Southwest 234 269 5,100 -950 Descending New York TRACON
Fri 04:02:03 PM 40.9500 -73.7333 210° Southwest 232 267 4,200 -1,050 Descending New York TRACON
Fri 04:03:03 PM 40.9000 -73.7667 207° Southwest 216 249 3,000 -1,150 Descending New York TRACON
Fri 04:04:03 PM 40.8667 -73.8167 229° Southwest 184 212 1,900 -950 Descending New York TRACON
Fri 04:05:03 PM 40.8333 -73.8333 201° Southwest 135 155 1,100 -800 Descending New York TRACON
Fri 04:06:03 PM 40.8000 -73.8667 217° Southwest 122 140 300 -800 Descending New York TRACON
Fri 04:08:00 PM 40.7772 -73.8726 180° South  Level Estimated
Fri 04:15:00 PM 40.7772 -73.8726 180° South  Level Estimated

Login

Don't have an account? Register now (free) for customized features, flight alerts, and more!